createdAt,value
2019-02-19T00:00:51.639Z,28.27
2019-02-19T00:02:23.445Z,27.03
2019-02-19T00:03:54.754Z,27.00
2019-02-19T00:05:26.250Z,27.07
2019-02-19T00:06:58.158Z,27.87
2019-02-19T00:08:30.046Z,26.15
2019-02-19T00:10:01.933Z,26.33
2019-02-19T00:11:34.128Z,22.85
2019-02-19T00:13:06.064Z,23.85
2019-02-19T00:14:37.960Z,22.50
2019-02-19T00:16:09.847Z,24.70
2019-02-19T00:17:42.254Z,24.85
2019-02-19T00:19:14.175Z,25.20
2019-02-19T00:20:46.065Z,26.77
2019-02-19T00:22:17.341Z,26.73
2019-02-19T00:23:49.607Z,26.85
2019-02-19T00:25:20.979Z,26.33
2019-02-19T00:26:52.295Z,28.10
2019-02-19T00:28:23.578Z,28.10
2019-02-19T00:29:55.759Z,33.48
2019-02-19T00:31:27.065Z,30.00
2019-02-19T00:32:58.384Z,28.97
2019-02-19T00:34:29.695Z,29.90
2019-02-19T00:36:01.347Z,28.70
2019-02-19T00:37:32.653Z,26.80
2019-02-19T00:39:03.965Z,28.67
2019-02-19T00:40:35.300Z,29.30
2019-02-19T00:42:07.064Z,30.40
2019-02-19T00:43:38.389Z,27.67
2019-02-19T00:45:16.444Z,25.53
2019-02-19T00:46:43.226Z,26.62
2019-02-19T00:48:14.828Z,28.70
2019-02-19T00:49:46.158Z,31.70
2019-02-19T00:51:18.029Z,28.10
2019-02-19T00:52:49.335Z,30.30
2019-02-19T00:54:20.635Z,30.47
2019-02-19T00:55:51.981Z,30.07
2019-02-19T00:57:23.479Z,29.67
2019-02-19T00:58:54.764Z,29.57
2019-02-19T01:00:26.071Z,29.83
2019-02-19T01:01:57.445Z,29.20
2019-02-19T01:03:29.158Z,29.83
2019-02-19T01:05:00.497Z,29.00
2019-02-19T01:06:32.153Z,26.40
2019-02-19T01:08:03.466Z,26.87
2019-02-19T01:09:34.770Z,25.23
2019-02-19T01:11:06.118Z,25.10
2019-02-19T01:12:37.823Z,24.70
2019-02-19T01:14:09.123Z,25.47
2019-02-19T01:15:40.425Z,25.60
2019-02-19T01:17:11.749Z,25.17
2019-02-19T01:18:43.473Z,24.97
2019-02-19T01:20:14.806Z,23.43
2019-02-19T01:21:46.475Z,25.10
2019-02-19T01:23:18.394Z,24.57
2019-02-19T01:24:49.714Z,23.47
2019-02-19T01:26:21.030Z,23.20
2019-02-19T01:27:53.499Z,23.38
2019-02-19T01:29:24.851Z,23.57
2019-02-19T01:30:56.149Z,24.60
2019-02-19T01:32:27.443Z,23.07
2019-02-19T01:33:59.270Z,23.50
2019-02-19T01:35:30.589Z,25.37
2019-02-19T01:37:02.458Z,22.77
2019-02-19T01:38:34.393Z,24.35
2019-02-19T01:40:05.697Z,25.00
2019-02-19T01:41:37.593Z,25.15
2019-02-19T01:43:09.265Z,24.50
2019-02-19T01:44:40.618Z,23.97
2019-02-19T01:46:12.533Z,24.55
2019-02-19T01:47:43.816Z,24.23
2019-02-19T01:49:15.431Z,24.40
2019-02-19T01:50:46.726Z,23.77
2019-02-19T01:52:18.068Z,25.17
2019-02-19T01:53:49.450Z,24.03
2019-02-19T01:55:21.119Z,23.20
2019-02-19T01:56:52.417Z,24.60
2019-02-19T01:58:24.300Z,24.57
2019-02-19T01:59:56.200Z,23.27
2019-02-19T02:01:28.588Z,23.98
2019-02-19T02:02:59.889Z,24.07
2019-02-19T02:04:31.192Z,23.33
2019-02-19T02:06:03.083Z,23.77
2019-02-19T02:07:35.206Z,23.40
2019-02-19T02:09:06.506Z,24.07
2019-02-19T02:10:38.409Z,24.72
2019-02-19T02:12:09.721Z,24.77
2019-02-19T02:13:41.191Z,24.77
2019-02-19T02:15:12.517Z,24.67
2019-02-19T02:16:43.846Z,25.10
2019-02-19T02:18:15.167Z,25.40
2019-02-19T02:19:46.994Z,25.50
2019-02-19T02:21:18.325Z,24.70
2019-02-19T02:22:49.971Z,25.47
2019-02-19T02:24:21.265Z,26.33
2019-02-19T02:25:52.560Z,25.60
2019-02-19T02:27:23.891Z,25.13
2019-02-19T02:28:55.567Z,24.20
2019-02-19T02:30:26.890Z,26.00
2019-02-19T02:31:58.171Z,25.93
2019-02-19T02:33:29.548Z,25.67
2019-02-19T02:35:01.106Z,26.00
2019-02-19T02:36:32.405Z,25.07
2019-02-19T02:38:04.211Z,27.03
2019-02-19T02:39:35.558Z,27.87
2019-02-19T02:41:06.923Z,31.23
2019-02-19T02:42:38.240Z,30.73
2019-02-19T02:44:10.063Z,29.37
2019-02-19T02:45:41.370Z,31.23
2019-02-19T02:47:12.699Z,30.03
2019-02-19T02:48:43.999Z,31.03
2019-02-19T02:50:15.853Z,36.63
2019-02-19T02:51:47.136Z,32.50
2019-02-19T02:53:18.754Z,37.77
2019-02-19T02:54:50.034Z,37.20
2019-02-19T02:56:21.318Z,28.10
2019-02-19T02:57:52.677Z,24.17
2019-02-19T02:59:24.614Z,27.07
2019-02-19T03:00:55.936Z,25.83
2019-02-19T03:02:27.252Z,27.27
2019-02-19T03:03:58.577Z,26.43
2019-02-19T03:05:30.377Z,27.90
2019-02-19T03:07:01.686Z,29.73
2019-02-19T03:08:33.277Z,34.17
2019-02-19T03:10:04.568Z,33.50
2019-02-19T03:11:35.874Z,38.07
2019-02-19T03:13:07.196Z,40.87
2019-02-19T03:14:38.830Z,42.40
2019-02-19T03:16:10.127Z,41.17
2019-02-19T03:17:41.432Z,38.90
2019-02-19T03:19:12.753Z,42.57
2019-02-19T03:20:44.303Z,42.27
2019-02-19T03:22:15.650Z,42.03
2019-02-19T03:23:47.201Z,43.27
2019-02-19T03:25:18.505Z,40.43
2019-02-19T03:26:49.863Z,42.20
2019-02-19T03:28:21.174Z,40.37
2019-02-19T03:29:53.190Z,41.40
2019-02-19T03:31:24.510Z,40.70
2019-02-19T03:32:55.771Z,39.10
2019-02-19T03:34:27.055Z,40.20
2019-02-19T03:35:58.739Z,39.87
2019-02-19T03:37:30.068Z,39.93
2019-02-19T03:39:01.844Z,39.73
2019-02-19T03:40:33.198Z,35.10
2019-02-19T03:42:04.509Z,32.17
2019-02-19T03:43:35.800Z,25.50
2019-02-19T03:45:07.419Z,28.03
2019-02-19T03:46:38.738Z,26.77
2019-02-19T03:48:10.070Z,26.90
2019-02-19T03:49:41.339Z,28.17
2019-02-19T03:51:12.880Z,27.97
2019-02-19T03:52:44.226Z,26.73
2019-02-19T03:54:15.651Z,26.03
2019-02-19T03:55:46.977Z,29.37
2019-02-19T03:57:18.250Z,28.63
2019-02-19T03:58:49.601Z,30.53
2019-02-19T04:00:21.440Z,29.37
2019-02-19T04:01:52.760Z,28.43
2019-02-19T04:03:24.085Z,27.67
2019-02-19T04:04:55.421Z,29.77
2019-02-19T04:06:27.020Z,29.37
2019-02-19T04:07:58.308Z,40.47
2019-02-19T04:09:29.706Z,32.40
2019-02-19T04:11:01.039Z,30.03
2019-02-19T04:12:32.345Z,29.27
2019-02-19T04:14:03.657Z,31.43
2019-02-19T04:15:35.477Z,34.17
2019-02-19T04:17:06.859Z,33.07
2019-02-19T04:18:38.135Z,34.50
2019-02-19T04:20:09.457Z,31.90
2019-02-19T04:21:41.349Z,44.00
2019-02-19T04:23:12.698Z,72.83
2019-02-19T04:24:44.043Z,105.47
2019-02-19T04:26:15.369Z,105.07
2019-02-19T04:27:46.934Z,112.63
2019-02-19T04:29:18.276Z,102.80
2019-02-19T04:30:50.158Z,102.38
2019-02-19T04:32:22.071Z,91.70
2019-02-19T04:33:53.915Z,78.87
2019-02-19T04:35:25.202Z,114.27
2019-02-19T04:36:56.530Z,139.03
2019-02-19T04:38:27.875Z,120.80
2019-02-19T04:39:59.449Z,101.43
2019-02-19T04:41:30.720Z,79.07
2019-02-19T04:43:02.035Z,77.03
2019-02-19T04:44:33.396Z,77.07
2019-02-19T04:46:04.943Z,70.30
2019-02-19T04:47:36.253Z,67.97
2019-02-19T04:49:07.550Z,67.50
2019-02-19T04:50:38.906Z,63.27
2019-02-19T04:52:10.334Z,61.33
2019-02-19T04:53:41.679Z,68.13
2019-02-19T04:55:12.994Z,62.63
2019-02-19T04:56:44.305Z,72.10
2019-02-19T04:58:15.902Z,74.63
2019-02-19T04:59:47.246Z,79.90
2019-02-19T05:01:18.575Z,75.57
2019-02-19T05:02:51.552Z,79.67
2019-02-19T05:04:23.304Z,110.03
2019-02-19T05:05:54.644Z,135.13
2019-02-19T05:07:25.997Z,124.67
2019-02-19T05:08:57.329Z,130.80
2019-02-19T05:10:29.090Z,129.17
2019-02-19T05:12:00.401Z,112.50
2019-02-19T05:13:31.740Z,109.20
2019-02-19T05:15:03.069Z,104.30
2019-02-19T05:16:40.733Z,91.83
2019-02-19T05:18:07.723Z,86.27
2019-02-19T05:19:39.093Z,77.37
2019-02-19T05:21:10.399Z,75.77
2019-02-19T05:22:42.064Z,79.60
2019-02-19T05:24:13.350Z,79.90
2019-02-19T05:25:44.670Z,79.07
2019-02-19T05:27:15.980Z,73.80
2019-02-19T05:28:47.720Z,72.80
2019-02-19T05:30:19.006Z,77.47
2019-02-19T05:31:50.353Z,81.97
2019-02-19T05:33:21.680Z,96.20
2019-02-19T05:34:53.221Z,91.53
2019-02-19T05:36:24.536Z,81.13
2019-02-19T05:37:55.883Z,86.63
2019-02-19T05:39:27.191Z,145.40
2019-02-19T05:40:58.621Z,122.33
2019-02-19T05:42:29.922Z,99.87
2019-02-19T05:44:01.244Z,91.27
2019-02-19T05:45:32.537Z,99.67
2019-02-19T05:47:04.008Z,87.97
2019-02-19T05:48:35.355Z,91.70
2019-02-19T05:50:06.732Z,97.53
2019-02-19T05:51:38.082Z,103.40
2019-02-19T05:53:09.494Z,101.83
2019-02-19T05:54:40.848Z,98.57
2019-02-19T05:56:12.375Z,96.20
2019-02-19T05:57:43.687Z,71.50
2019-02-19T05:59:15.002Z,46.23
2019-02-19T06:00:46.337Z,40.50
2019-02-19T06:02:17.949Z,41.87
2019-02-19T06:03:49.309Z,42.25
2019-02-19T06:05:20.627Z,42.00
2019-02-19T06:06:51.937Z,32.27
2019-02-19T06:08:23.650Z,33.97
2019-02-19T06:09:54.986Z,33.40
2019-02-19T06:11:26.702Z,29.10
2019-02-19T06:12:58.026Z,31.33
2019-02-19T06:14:29.327Z,30.60
2019-02-19T06:16:00.674Z,32.43
2019-02-19T06:17:33.304Z,32.37
2019-02-19T06:19:04.653Z,33.17
2019-02-19T06:20:35.940Z,36.07
2019-02-19T06:22:07.304Z,34.20
2019-02-19T06:23:39.362Z,33.80
2019-02-19T06:25:11.318Z,33.13
2019-02-19T06:26:42.859Z,33.97
2019-02-19T06:28:14.152Z,33.43
2019-02-19T06:29:46.078Z,33.85
2019-02-19T06:31:18.001Z,35.52
2019-02-19T06:32:49.695Z,32.70
2019-02-19T06:34:20.983Z,63.77
2019-02-19T06:35:52.275Z,68.10
2019-02-19T06:37:23.627Z,72.73
2019-02-19T06:38:55.086Z,73.83
2019-02-19T06:40:26.404Z,72.40
2019-02-19T06:41:57.958Z,66.97
2019-02-19T06:43:29.325Z,64.03
2019-02-19T06:45:00.675Z,62.17
2019-02-19T06:46:31.987Z,59.93
2019-02-19T06:48:03.621Z,53.60
2019-02-19T06:49:34.921Z,52.00
2019-02-19T06:51:06.255Z,50.53
2019-02-19T06:52:38.141Z,51.15
2019-02-19T06:54:09.797Z,50.17
2019-02-19T06:55:41.092Z,53.33
2019-02-19T06:57:12.904Z,51.40
2019-02-19T06:58:44.205Z,50.23
2019-02-19T07:00:15.517Z,48.50
2019-02-19T07:01:46.852Z,48.57
2019-02-19T07:03:18.470Z,54.53
2019-02-19T07:04:49.774Z,50.07
2019-02-19T07:06:21.659Z,54.88
2019-02-19T07:07:52.971Z,54.30
2019-02-19T07:09:24.661Z,54.07
2019-02-19T07:10:55.964Z,54.63
2019-02-19T07:12:27.418Z,54.10
2019-02-19T07:13:58.716Z,56.67
2019-02-19T07:15:30.067Z,59.53
2019-02-19T07:17:01.370Z,58.17
2019-02-19T07:18:32.936Z,62.50
2019-02-19T07:20:04.236Z,62.67
2019-02-19T07:21:36.176Z,64.27
2019-02-19T07:23:08.068Z,63.48
2019-02-19T07:24:40.208Z,67.17
2019-02-19T07:26:12.098Z,68.10
2019-02-19T07:27:44.434Z,71.87
2019-02-19T07:29:16.314Z,63.17
2019-02-19T07:30:47.611Z,61.93
2019-02-19T07:32:18.941Z,57.83
2019-02-19T07:33:51.232Z,59.38
2019-02-19T07:35:23.102Z,58.23
2019-02-19T07:36:55.026Z,62.53
2019-02-19T07:38:26.321Z,56.57
2019-02-19T07:39:57.930Z,65.83
2019-02-19T07:41:29.834Z,51.90
2019-02-19T07:43:01.887Z,46.60
2019-02-19T07:44:33.801Z,45.88
2019-02-19T07:46:05.776Z,54.13
2019-02-19T07:47:37.641Z,50.38
2019-02-19T07:49:09.777Z,51.40
2019-02-19T07:50:41.688Z,50.55
2019-02-19T07:52:13.573Z,50.58
2019-02-19T07:53:45.446Z,44.75
2019-02-19T07:55:17.706Z,45.43
2019-02-19T07:56:49.650Z,46.13
2019-02-19T07:58:21.826Z,48.63
2019-02-19T07:59:53.727Z,46.50
2019-02-19T08:01:25.619Z,47.75
2019-02-19T08:02:57.533Z,48.42
2019-02-19T08:04:29.858Z,48.70
2019-02-19T08:06:01.722Z,48.08
2019-02-19T08:07:33.629Z,47.80
2019-02-19T08:09:05.533Z,48.58
2019-02-19T08:10:37.773Z,50.50
2019-02-19T08:12:09.676Z,50.45
2019-02-19T08:13:50.844Z,48.95
2019-02-19T08:15:22.782Z,50.98
2019-02-19T08:16:54.729Z,48.92
2019-02-19T08:18:26.687Z,50.78
2019-02-19T08:19:58.938Z,49.65
2019-02-19T08:21:30.842Z,51.58
2019-02-19T08:23:02.783Z,50.85
2019-02-19T08:24:34.691Z,51.98
2019-02-19T08:26:07.085Z,52.65
2019-02-19T08:27:38.951Z,51.35
2019-02-19T08:29:13.680Z,50.75
2019-02-19T08:30:44.695Z,47.70
2019-02-19T08:32:16.590Z,47.90
2019-02-19T08:33:48.512Z,49.35
2019-02-19T08:35:20.815Z,51.42
2019-02-19T08:36:52.705Z,52.38
2019-02-19T08:38:24.570Z,51.02
2019-02-19T08:39:56.456Z,49.98
2019-02-19T08:41:28.754Z,48.70
2019-02-19T08:43:00.637Z,49.80
2019-02-19T08:44:32.879Z,47.25
2019-02-19T08:46:04.780Z,47.27
2019-02-19T08:47:42.728Z,37.67
2019-02-19T08:49:10.199Z,35.83
2019-02-19T08:50:42.434Z,37.48
2019-02-19T08:52:14.393Z,37.83
2019-02-19T08:53:46.268Z,46.35
2019-02-19T08:55:18.150Z,45.50
2019-02-19T08:56:50.347Z,49.95
2019-02-19T08:58:22.285Z,45.40
2019-02-19T08:59:54.484Z,46.53
2019-02-19T09:01:26.364Z,44.55
2019-02-19T09:02:58.272Z,38.83
2019-02-19T09:04:30.200Z,37.35
2019-02-19T09:06:02.504Z,38.35
2019-02-19T09:07:34.393Z,41.18
2019-02-19T09:09:06.316Z,35.80
2019-02-19T09:10:38.218Z,37.03
2019-02-19T09:12:11.562Z,37.28
2019-02-19T09:13:43.514Z,39.25
2019-02-19T09:15:15.773Z,42.88
2019-02-19T09:16:47.682Z,44.73
2019-02-19T09:18:19.618Z,43.02
2019-02-19T09:19:51.538Z,42.03
2019-02-19T09:21:24.001Z,37.88
2019-02-19T09:22:55.900Z,37.58
2019-02-19T09:24:27.824Z,40.88
2019-02-19T09:25:59.733Z,37.33
2019-02-19T09:27:32.033Z,31.37
2019-02-19T09:29:03.898Z,32.42
2019-02-19T09:30:36.055Z,31.35
2019-02-19T09:32:07.958Z,32.55
2019-02-19T09:33:39.911Z,33.78
2019-02-19T09:35:11.843Z,35.28
2019-02-19T09:36:44.079Z,33.53
2019-02-19T09:38:15.956Z,34.58
2019-02-19T09:39:47.860Z,31.68
2019-02-19T09:41:19.800Z,34.25
2019-02-19T09:42:51.982Z,34.05
2019-02-19T09:44:23.890Z,32.17
2019-02-19T09:45:56.210Z,33.83
2019-02-19T09:47:28.068Z,35.28
2019-02-19T09:48:59.989Z,33.28
2019-02-19T09:50:35.257Z,28.62
2019-02-19T09:52:07.532Z,29.75
2019-02-19T09:53:39.419Z,28.90
2019-02-19T09:55:11.327Z,20.77
2019-02-19T09:56:43.282Z,21.82
2019-02-19T09:58:15.452Z,28.55
2019-02-19T09:59:47.351Z,29.12
2019-02-19T10:01:22.271Z,29.25
2019-02-19T10:02:54.200Z,28.52
2019-02-19T10:04:26.069Z,29.67
2019-02-19T10:05:57.953Z,30.05
2019-02-19T10:07:30.169Z,29.52
2019-02-19T10:09:02.080Z,28.70
2019-02-19T10:10:33.973Z,28.67
2019-02-19T10:12:05.862Z,30.70
2019-02-19T10:13:38.071Z,34.78
2019-02-19T10:15:09.993Z,32.80
2019-02-19T10:16:42.291Z,30.90
2019-02-19T10:18:14.175Z,32.23
2019-02-19T10:19:46.046Z,34.23
2019-02-19T10:21:17.973Z,33.73
2019-02-19T10:22:50.118Z,32.78
2019-02-19T10:24:22.017Z,24.50
2019-02-19T10:25:53.964Z,20.92
2019-02-19T10:27:25.857Z,21.07
2019-02-19T10:28:58.042Z,17.45
2019-02-19T10:30:29.904Z,17.55
2019-02-19T10:32:02.183Z,18.48
2019-02-19T10:33:34.084Z,19.42
2019-02-19T10:35:05.986Z,19.82
2019-02-19T10:36:38.633Z,19.55
2019-02-19T10:38:11.101Z,20.45
2019-02-19T10:39:43.344Z,20.68
2019-02-19T10:41:15.216Z,19.32
2019-02-19T10:42:47.088Z,19.05
2019-02-19T10:44:19.241Z,20.35
2019-02-19T10:45:51.117Z,18.32
2019-02-19T10:47:23.366Z,17.92
2019-02-19T10:48:55.264Z,14.93
2019-02-19T10:50:27.240Z,11.35
2019-02-19T10:51:59.117Z,12.93
2019-02-19T10:53:31.487Z,13.25
2019-02-19T10:55:03.365Z,13.13
2019-02-19T10:56:35.342Z,12.75
2019-02-19T10:58:07.246Z,13.22
2019-02-19T10:59:39.397Z,14.20
2019-02-19T11:01:11.298Z,14.07
2019-02-19T11:02:43.820Z,13.58
2019-02-19T11:04:15.765Z,14.33
2019-02-19T11:05:47.629Z,15.93
2019-02-19T11:07:19.513Z,17.05
2019-02-19T11:08:51.758Z,14.25
2019-02-19T11:10:23.642Z,24.10
2019-02-19T11:11:55.557Z,15.65
2019-02-19T11:13:27.478Z,13.25
2019-02-19T11:14:59.695Z,12.15
2019-02-19T11:16:31.583Z,56.25
2019-02-19T11:18:03.841Z,40.60
2019-02-19T11:19:35.938Z,47.15
2019-02-19T11:21:07.879Z,54.13
2019-02-19T11:22:39.764Z,472.30
2019-02-19T11:24:12.126Z,823.98
2019-02-19T11:25:44.045Z,629.83
2019-02-19T11:27:16.732Z,245.78
2019-02-19T11:28:48.894Z,54.77
2019-02-19T11:30:21.283Z,528.77
2019-02-19T11:31:53.182Z,76.42
2019-02-19T11:33:25.409Z,24.50
2019-02-19T11:34:57.336Z,16.50
2019-02-19T11:36:29.243Z,42.33
2019-02-19T11:38:01.735Z,23.90
2019-02-19T11:39:34.042Z,102.70
2019-02-19T11:41:05.921Z,61.48
2019-02-19T11:42:37.847Z,29.27
2019-02-19T11:44:09.741Z,28.52
2019-02-19T11:45:41.982Z,21.82
2019-02-19T11:47:13.858Z,25.88
2019-02-19T11:48:46.089Z,17.23
2019-02-19T11:50:18.002Z,18.37
2019-02-19T11:51:49.897Z,31.40
2019-02-19T11:53:22.335Z,22.80
2019-02-19T11:54:54.731Z,33.95
2019-02-19T11:56:26.640Z,30.48
2019-02-19T11:57:58.534Z,22.93
2019-02-19T11:59:30.430Z,17.30
2019-02-19T12:01:02.953Z,15.53
2019-02-19T12:02:34.819Z,14.38
2019-02-19T12:04:06.980Z,13.13
2019-02-19T12:05:38.874Z,11.75
2019-02-19T12:07:10.783Z,11.90
2019-02-19T12:08:42.724Z,10.48
2019-02-19T12:10:15.003Z,11.88
2019-02-19T12:11:46.906Z,11.60
2019-02-19T12:13:18.857Z,11.85
2019-02-19T12:14:50.743Z,13.03
2019-02-19T12:16:24.951Z,11.63
2019-02-19T12:17:56.823Z,10.53
2019-02-19T12:19:28.802Z,10.15
2019-02-19T12:21:00.692Z,10.63
2019-02-19T12:22:32.634Z,9.30
2019-02-19T12:24:04.506Z,8.90
2019-02-19T12:25:36.614Z,9.05
2019-02-19T12:27:09.017Z,9.58
2019-02-19T12:28:40.957Z,10.55
2019-02-19T12:30:12.831Z,10.13
2019-02-19T12:31:45.183Z,9.78
2019-02-19T12:33:17.101Z,10.58
2019-02-19T12:34:49.273Z,11.48
2019-02-19T12:36:21.149Z,10.93
2019-02-19T12:37:53.033Z,18.10
2019-02-19T12:39:24.933Z,14.93
2019-02-19T12:40:57.190Z,14.93
2019-02-19T12:42:29.104Z,11.38
2019-02-19T12:44:01.010Z,11.60
2019-02-19T12:45:32.898Z,11.80
2019-02-19T12:47:05.103Z,10.75
2019-02-19T12:48:37.020Z,10.28
2019-02-19T12:50:08.912Z,10.32
2019-02-19T12:51:40.804Z,12.82
2019-02-19T12:53:13.035Z,17.75
2019-02-19T12:54:44.921Z,13.03
2019-02-19T12:56:16.842Z,15.90
2019-02-19T12:57:48.731Z,15.45
2019-02-19T12:59:20.947Z,14.45
2019-02-19T13:00:52.855Z,14.30
2019-02-19T13:02:24.736Z,15.88
2019-02-19T13:03:56.625Z,11.15
2019-02-19T13:05:28.814Z,14.13
2019-02-19T13:07:00.700Z,12.75
2019-02-19T13:08:32.634Z,16.32
2019-02-19T13:10:04.515Z,14.00
2019-02-19T13:11:36.709Z,12.55
2019-02-19T13:13:08.582Z,14.33
2019-02-19T13:14:40.504Z,15.80
2019-02-19T13:16:12.411Z,14.95
2019-02-19T13:17:44.636Z,13.28
2019-02-19T13:19:16.547Z,12.98
2019-02-19T13:20:48.949Z,13.48
2019-02-19T13:22:20.850Z,15.05
2019-02-19T13:23:52.778Z,14.85
2019-02-19T13:25:24.664Z,14.68
2019-02-19T13:26:56.821Z,14.00
2019-02-19T13:28:28.680Z,16.37
2019-02-19T13:30:00.614Z,17.55
2019-02-19T13:31:32.506Z,16.45
2019-02-19T13:33:04.612Z,14.70
2019-02-19T13:34:36.500Z,16.37
2019-02-19T13:36:08.609Z,14.38
2019-02-19T13:37:40.493Z,18.52
2019-02-19T13:39:12.443Z,15.28
2019-02-19T13:40:44.316Z,15.05
2019-02-19T13:42:16.550Z,14.53
2019-02-19T13:43:48.422Z,16.30
2019-02-19T13:45:20.323Z,14.28
2019-02-19T13:46:52.277Z,14.35
2019-02-19T13:48:24.465Z,14.20
2019-02-19T13:49:56.342Z,14.47
2019-02-19T13:51:28.478Z,16.20
2019-02-19T13:53:00.437Z,17.55
2019-02-19T13:54:32.318Z,18.32
2019-02-19T13:56:04.202Z,19.10
2019-02-19T13:57:36.388Z,20.43
2019-02-19T13:59:08.267Z,21.17
2019-02-19T14:00:40.135Z,18.07
2019-02-19T14:02:12.037Z,22.50
2019-02-19T14:03:44.227Z,24.47
2019-02-19T14:05:16.112Z,20.62
2019-02-19T14:06:48.239Z,24.60
2019-02-19T14:08:20.156Z,23.10
2019-02-19T14:09:52.091Z,19.50
2019-02-19T14:11:23.999Z,23.38
2019-02-19T14:12:56.159Z,18.40
2019-02-19T14:14:28.040Z,20.80
2019-02-19T14:15:59.989Z,19.07
2019-02-19T14:17:31.868Z,17.57
2019-02-19T14:19:04.193Z,17.45
2019-02-19T14:20:36.100Z,18.80
2019-02-19T14:22:08.509Z,21.73
2019-02-19T14:23:40.401Z,22.45
2019-02-19T14:25:12.354Z,15.35
2019-02-19T14:26:44.252Z,17.90
2019-02-19T14:28:16.419Z,17.12
2019-02-19T14:29:48.308Z,18.17
2019-02-19T14:31:20.217Z,16.10
2019-02-19T14:32:52.146Z,15.08
2019-02-19T14:34:24.370Z,17.27
2019-02-19T14:35:56.258Z,18.20
2019-02-19T14:37:28.475Z,17.05
2019-02-19T14:39:00.400Z,16.12
2019-02-19T14:40:32.255Z,19.42
2019-02-19T14:42:04.169Z,19.67
2019-02-19T14:43:36.307Z,18.57
2019-02-19T14:45:08.235Z,18.32
2019-02-19T14:46:40.113Z,17.05
2019-02-19T14:48:12.003Z,17.90
2019-02-19T14:49:47.294Z,18.02
2019-02-19T14:51:17.790Z,15.98
2019-02-19T14:52:49.893Z,16.62
2019-02-19T14:54:21.771Z,14.78
2019-02-19T14:55:53.696Z,16.25
2019-02-19T14:57:25.601Z,15.68
2019-02-19T14:58:57.893Z,15.93
2019-02-19T15:00:29.804Z,20.17
2019-02-19T15:02:01.712Z,20.85
2019-02-19T15:03:33.579Z,16.50
2019-02-19T15:05:05.824Z,17.07
2019-02-19T15:06:37.747Z,21.00
2019-02-19T15:08:09.619Z,15.98
2019-02-19T15:09:41.483Z,17.85
2019-02-19T15:11:13.521Z,18.85
2019-02-19T15:12:45.439Z,19.02
2019-02-19T15:14:17.314Z,16.00
2019-02-19T15:15:49.214Z,17.87
2019-02-19T15:17:21.455Z,16.42
2019-02-19T15:18:53.391Z,17.23
2019-02-19T15:20:25.298Z,20.88
2019-02-19T15:21:57.185Z,20.17
2019-02-19T15:23:29.163Z,18.20
2019-02-19T15:25:01.114Z,17.75
2019-02-19T15:26:33.041Z,19.77
2019-02-19T15:28:04.947Z,23.87
2019-02-19T15:29:36.971Z,25.27
2019-02-19T15:31:08.922Z,21.27
2019-02-19T15:32:40.811Z,21.42
2019-02-19T15:34:12.708Z,24.20
2019-02-19T15:35:44.834Z,25.27
2019-02-19T15:37:17.299Z,21.75
2019-02-19T15:38:49.192Z,22.58
2019-02-19T15:40:21.079Z,18.52
2019-02-19T15:41:53.233Z,18.98
2019-02-19T15:43:25.140Z,20.05
2019-02-19T15:44:57.073Z,21.48
2019-02-19T15:46:28.997Z,25.15
2019-02-19T15:48:01.086Z,24.75
2019-02-19T15:49:33.054Z,37.15
2019-02-19T15:51:04.938Z,32.38
2019-02-19T15:52:36.820Z,33.78
2019-02-19T15:54:08.909Z,32.45
2019-02-19T15:55:40.827Z,32.90
2019-02-19T15:57:12.698Z,31.17
2019-02-19T15:58:44.621Z,27.27
2019-02-19T16:00:16.772Z,26.57
2019-02-19T16:01:48.678Z,28.15
2019-02-19T16:03:20.583Z,23.02
2019-02-19T16:04:52.483Z,21.30
2019-02-19T16:06:24.682Z,23.42
2019-02-19T16:07:56.593Z,30.48
2019-02-19T16:09:28.517Z,28.67
2019-02-19T16:11:00.384Z,32.25
2019-02-19T16:12:32.460Z,36.35
2019-02-19T16:14:04.418Z,38.60
2019-02-19T16:15:36.293Z,60.52
2019-02-19T16:17:08.179Z,84.07
2019-02-19T16:18:40.220Z,62.20
2019-02-19T16:20:12.134Z,65.78
2019-02-19T16:21:44.011Z,72.40
2019-02-19T16:23:15.929Z,51.35
2019-02-19T16:24:47.909Z,51.75
2019-02-19T16:26:19.882Z,51.60
2019-02-19T16:27:51.788Z,53.65
2019-02-19T16:29:23.695Z,65.70
2019-02-19T16:30:55.735Z,64.10
2019-02-19T16:32:27.645Z,67.78
2019-02-19T16:33:59.554Z,89.17
2019-02-19T16:35:31.423Z,107.78
2019-02-19T16:37:03.450Z,93.80
2019-02-19T16:38:35.381Z,95.30
2019-02-19T16:40:07.815Z,83.07
2019-02-19T16:41:39.722Z,150.78
2019-02-19T16:43:11.608Z,101.50
2019-02-19T16:44:43.581Z,90.15
2019-02-19T16:46:15.743Z,75.30
2019-02-19T16:47:47.624Z,66.67
2019-02-19T16:49:19.533Z,65.37
2019-02-19T16:50:51.486Z,64.07
2019-02-19T16:52:23.592Z,56.53
2019-02-19T16:53:55.526Z,53.60
2019-02-19T16:55:27.500Z,49.65
2019-02-19T16:56:59.332Z,54.50
2019-02-19T16:58:31.415Z,50.03
2019-02-19T17:00:03.334Z,59.73
2019-02-19T17:01:35.200Z,55.90
2019-02-19T17:03:07.112Z,58.40
2019-02-19T17:04:39.249Z,48.08
2019-02-19T17:06:11.137Z,45.98
2019-02-19T17:07:43.049Z,49.53
2019-02-19T17:09:14.965Z,44.73
2019-02-19T17:10:47.698Z,44.50
2019-02-19T17:12:19.580Z,47.05
2019-02-19T17:13:58.084Z,58.10
2019-02-19T17:15:25.011Z,75.72
2019-02-19T17:16:57.196Z,69.55
2019-02-19T17:18:29.133Z,69.37
2019-02-19T17:20:01.014Z,54.15
2019-02-19T17:21:32.911Z,65.47
2019-02-19T17:23:04.957Z,69.75
2019-02-19T17:24:36.857Z,74.82
2019-02-19T17:26:08.738Z,79.35
2019-02-19T17:27:40.662Z,128.18
2019-02-19T17:29:12.709Z,113.15
2019-02-19T17:30:44.629Z,110.65
2019-02-19T17:32:16.543Z,87.50
2019-02-19T17:33:48.424Z,89.95
2019-02-19T17:35:20.536Z,107.10
2019-02-19T17:36:52.415Z,106.40
2019-02-19T17:38:24.341Z,95.03
2019-02-19T17:39:56.222Z,99.42
2019-02-19T17:41:28.705Z,105.67
2019-02-19T17:43:00.620Z,107.05
2019-02-19T17:44:32.509Z,102.10
2019-02-19T17:46:04.447Z,106.60
2019-02-19T17:47:36.711Z,99.72
2019-02-19T17:49:08.609Z,96.40
2019-02-19T17:50:40.520Z,96.32
2019-02-19T17:52:12.468Z,89.87
2019-02-19T17:53:44.746Z,95.97
2019-02-19T17:55:16.621Z,103.25
2019-02-19T17:56:49.663Z,117.72
2019-02-19T17:58:21.644Z,119.50
2019-02-19T17:59:53.561Z,104.25
2019-02-19T18:01:25.421Z,110.68
2019-02-19T18:02:57.716Z,108.50
2019-02-19T18:04:29.614Z,115.70
2019-02-19T18:06:01.491Z,91.80
2019-02-19T18:07:33.387Z,86.00
2019-02-19T18:09:05.563Z,119.40
2019-02-19T18:10:37.452Z,113.95
2019-02-19T18:12:09.394Z,115.88
2019-02-19T18:13:41.314Z,114.60
2019-02-19T18:15:13.471Z,126.90
2019-02-19T18:16:45.399Z,131.67
2019-02-19T18:18:17.723Z,135.55
2019-02-19T18:19:49.591Z,119.75
2019-02-19T18:21:21.792Z,116.75
2019-02-19T18:22:53.740Z,121.60
2019-02-19T18:24:25.650Z,122.13
2019-02-19T18:25:57.523Z,125.45
2019-02-19T18:27:29.833Z,122.00
2019-02-19T18:29:01.736Z,114.52
2019-02-19T18:30:33.679Z,114.82
2019-02-19T18:32:05.554Z,115.03
2019-02-19T18:33:37.623Z,110.12
2019-02-19T18:35:09.566Z,109.05
2019-02-19T18:36:41.495Z,105.75
2019-02-19T18:38:13.388Z,106.70
2019-02-19T18:39:45.464Z,126.50
2019-02-19T18:41:17.452Z,137.07
2019-02-19T18:42:49.367Z,143.65
2019-02-19T18:44:21.313Z,163.37
2019-02-19T18:45:53.495Z,131.47
2019-02-19T18:47:25.423Z,105.30
2019-02-19T18:48:57.326Z,121.20
2019-02-19T18:50:29.226Z,107.52
2019-02-19T18:52:01.311Z,59.30
2019-02-19T18:53:33.265Z,67.85
2019-02-19T18:55:05.168Z,55.30
2019-02-19T18:56:37.065Z,53.63
2019-02-19T18:58:09.327Z,48.13
2019-02-19T18:59:41.298Z,48.75
2019-02-19T19:01:13.198Z,42.85
2019-02-19T19:02:45.081Z,40.15
2019-02-19T19:04:17.251Z,38.53
2019-02-19T19:05:49.179Z,35.60
2019-02-19T19:07:21.100Z,38.90
2019-02-19T19:08:52.984Z,38.02
2019-02-19T19:10:24.955Z,45.95
2019-02-19T19:11:56.901Z,53.75
2019-02-19T19:13:28.208Z,54.00
2019-02-19T19:15:00.154Z,46.30
2019-02-19T19:16:32.429Z,48.92
2019-02-19T19:18:04.329Z,49.03
2019-02-19T19:19:36.234Z,48.73
2019-02-19T19:21:08.402Z,51.95
2019-02-19T19:22:40.729Z,62.88
2019-02-19T19:24:12.618Z,58.50
2019-02-19T19:25:44.546Z,78.10
2019-02-19T19:27:16.456Z,84.37
2019-02-19T19:28:48.546Z,92.42
2019-02-19T19:30:20.437Z,98.30
2019-02-19T19:31:52.380Z,107.22
2019-02-19T19:33:24.278Z,117.37
2019-02-19T19:34:56.360Z,102.78
2019-02-19T19:36:28.231Z,73.70
2019-02-19T19:38:00.193Z,73.97
2019-02-19T19:39:32.096Z,77.67